Redondo, Valles Caldera, New Mexico Weather observations

Data are for 10 minute period ending at time listed.
 Day   Time   Solar   Ave.   Ave.  Ave.  Vector  Max.   Baro.   Total    
  of    of     Rad.   Air    Rel.  Wind   Wind   Wind  Press.  Precip.   
Year   Day            Temp.  Hum.  Speed  Dir.   Gust                    
2015   (MST)  Kw/m2    F      %     mph   deg.    mph    mb.     in.     
-------------------------------------------------------------------------
  26    3:30   0.00   34.7    36    5.2    98    11.3   694.1    0.00 
  26    3:40   0.00   34.8    36    4.8    77     9.0   694.1    0.00 
  26    3:50   0.00   34.3    37    4.3    62     9.0   694.2    0.00 
  26    4:00   0.00   34.4    36    4.8    67    11.3   694.2    0.00 
  26    4:10   0.00   35.1    35    4.9    61     9.6   694.3    0.00 
  26    4:20   0.00   34.9    35    4.3    68    10.8   694.3    0.00 
  26    4:30   0.00   33.8    37    3.4    87     6.6   694.3    0.00 
  26    4:40   0.00   31.5    41    2.5   124     6.6   694.3    0.00 
  26    4:50   0.00   29.2    46    2.3   134     6.0   694.3    0.00 
  26    5:00   0.00   27.5    49    2.7   140     6.0   694.3    0.00 
  26    5:10   0.00   27.2    49    3.2   161     9.0   694.2    0.00 
  26    5:20   0.00   27.8    47    2.7   159     6.6   694.3    0.00 
  26    5:30   0.00   27.1    50    1.5   152     4.8   694.3    0.00 
  26    5:40   0.00   25.8    53    0.2    79     1.8   694.4    0.00 
  26    5:50   0.00   27.1    48    1.3   104     3.6   694.4    0.00 
  26    6:00   0.00   29.4    45    1.7    69     6.6   694.4    0.00 
  26    6:10   0.00   32.2    41    2.8    86     5.4   694.4    0.00 
  26    6:20   0.00   31.6    42    2.4    59     6.0   694.6    0.00 
  26    6:30   0.00   30.0    45    2.5   110     7.8   694.6    0.00 
  26    6:40   0.00   29.3    46    1.4    98     4.8   694.7    0.00 
  26    6:50   0.00   27.3    51    0.9   143     3.6   694.8    0.00 
  26    7:00   0.00   27.6    50    1.8   149     4.8   694.7    0.00 
  26    7:10   0.00   27.7    50    1.7   161     4.8   694.8    0.00 
  26    7:20   0.01   27.6    51    1.5   161     6.0   694.8    0.00 
  26    7:30   0.01   27.9    49    2.7   155     5.4   694.9    0.00 
  26    7:40   0.01   29.5    47    2.5   125     6.0   694.9    0.00 
  26    7:50   0.02   31.4    43    3.4   131     7.8   694.9    0.00 
  26    8:00   0.10   35.6    35    3.6   138     6.0   695.0    0.00 
  26    8:10   0.15   38.6    32    3.4   110     6.6   695.0    0.00 
  26    8:20   0.17   40.8    30    2.7   134     7.8   695.1    0.00 
  26    8:30   0.21   41.9    28    3.2   131     7.2   695.2    0.00 
  26    8:40   0.24   44.2    27    2.5   112     4.8   695.3    0.00 
  26    8:50   0.27   44.3    26    3.8   130     7.2   695.3    0.00 
  26    9:00   0.30   43.2    27    3.5   145     7.2   695.4    0.00 
  26    9:10   0.33   44.0    27    3.6   136     7.8   695.4    0.00 
  26    9:20   0.36   44.6    25    4.6   150     9.6   695.4    0.00 
  26    9:30   0.39   46.3    24    3.7   135     9.0   695.5    0.00 
  26    9:40   0.42   46.6    23    4.5   146     8.4   695.5    0.00 
  26    9:50   0.44   47.2    23    4.3   144     9.0   695.5    0.00 
  26   10:00   0.47   47.5    23    4.7   129    11.3   695.6    0.00 
  26   10:10   0.49   47.1    24    4.9   130     9.0   695.7    0.00 
  26   10:20   0.51   49.0    23    4.0   133     8.4   695.7    0.00 
  26   10:30   0.54   48.9    22    5.3   118    11.9   695.7    0.00 
  26   10:40   0.55   50.0    22    4.7   135    13.7   695.7    0.00 
  26   10:50   0.57   49.4    22    4.8   144     9.0   695.7    0.00 
  26   11:00   0.58   49.6    22    5.0   133     9.6   695.7    0.00 
  26   11:10   0.59   50.3    21    4.6   144     8.4   695.7    0.00 
  26   11:20   0.60   50.8    21    4.4   141     9.0   695.6    0.00 
  26   11:30   0.62   52.5    19    3.6   157     7.8   695.5    0.00 
  26   11:40   0.63   52.3    19    4.5   162    10.2   695.4    0.00 
  26   11:50   0.63   51.7    19    4.4   147     8.4   695.3    0.00 
  26   12:00   0.64   52.3    19    4.4   144     7.8   695.2    0.00 
  26   12:10   0.65   52.8    20    3.9   150     7.2   695.0    0.00 
  26   12:20   0.65   53.3    19    4.2   158     7.2   695.0    0.00 
  26   12:30   0.65   52.3    20    4.0   146     8.4   694.8    0.00 
  26   12:40   0.65   51.4    21    4.5   144     9.0   694.7    0.00 
  26   12:50   0.64   52.1    20    3.6   144     7.8   694.6    0.00 
  26   13:00   0.63   51.6    20    4.6   151     8.4   694.6    0.00 
  26   13:10   0.42   50.0    21    4.2   141     9.0   694.6    0.00 
  26   13:20   0.17   49.4    22    4.0   148     7.2   694.6    0.00 
  26   13:30   0.36   49.6    23    4.7   158    10.2   694.6    0.00 
  26   13:40   0.17   49.4    24    4.2   159     9.0   694.5    0.00 
  26   13:50   0.48   49.3    22    4.5   157     9.6   694.4    0.00 
  26   14:00   0.56   51.3    21    3.3   162     8.4   694.4    0.00 
  26   14:10   0.55   51.3    20    4.1   146     8.4   694.4    0.00 
  26   14:20   0.52   50.4    20    5.1   166     8.4   694.3    0.00 
  26   14:30   0.51   51.2    22    3.4   162     8.4   694.4    0.01 
  26   14:40   0.49   51.6    24    3.6   145     8.4   694.4    0.00 
  26   14:50   0.46   49.7    26    4.6   150     8.4   694.5    0.00 
  26   15:00   0.42   48.7    27    4.2   147     9.0   694.6    0.00 
  26   15:10   0.36   47.9    28    4.5   143     8.4   694.6    0.00 
  26   15:20   0.30   46.7    30    4.5   175     7.8   694.7    0.00 
  26   15:30   0.24   45.1    32    4.1   152     9.6   694.7    0.00 
  26   15:40   0.23   44.1    34    4.1   173     8.4   694.7    0.00 
  26   15:50   0.14   42.3    38    3.8   164     7.8   694.8    0.00 
  26   16:00   0.09   40.2    43    3.7   157     7.2   694.7    0.00 
  26   16:10   0.08   38.0    48    3.6   192     5.4   694.7    0.00 
  26   16:20   0.08   36.1    52    3.3   185     6.6   694.8    0.00 
  26   16:30   0.08   36.4    51    3.9   185     8.4   694.8    0.00 
  26   16:40   0.08   36.5    48    4.2   195     7.2   694.8    0.00 
  26   16:50   0.08   36.2    46    4.2   189     9.0   694.8    0.00 
  26   17:00   0.05   35.4    47    4.9   185     9.6   694.8    0.00 
  26   17:10   0.04   34.5    48    4.8   189     7.2   694.9    0.00 
  26   17:20   0.02   33.9    49    4.4   191     6.6   695.0    0.00 
  26   17:30   0.01   32.0    52    4.0   195     6.6   695.0    0.00 
  26   17:40   0.00   30.6    55    3.8   192     4.8   695.1    0.00 
  26   17:50   0.00   29.5    59    3.2   186     6.0   695.1    0.00 
  26   18:00   0.00   29.4    59    3.6   187     5.4   695.1    0.00 
  26   18:10   0.00   29.5    58    3.4   180     7.8   695.1    0.00 
  26   18:20   0.00   29.8    58    2.9   175     6.0   695.1    0.00 
  26   18:30   0.00   30.4    58    3.3   151     7.8   695.2    0.00 
  26   18:40   0.00   30.7    58    2.7   158     7.2   695.3    0.00 
  26   18:50   0.00   30.2    60    1.9   133     6.0   695.2    0.00 
  26   19:00   0.00   30.2    59    2.9   163     5.4   695.1    0.00 
  26   19:10   0.00   30.5    58    2.4   158     5.4   695.2    0.00 
  26   19:20   0.00   30.1    60    2.2   169     5.4   695.2    0.00 
  26   19:30   0.00   30.1    61    3.2   155     7.8   695.1    0.00 
  26   19:40   0.00   30.1    61    2.6   130     7.2   695.1    0.00 
  26   19:50   0.00   30.0    61    3.2   141     8.4   695.2    0.00 
  26   20:00   0.00   30.1    60    2.8   154     7.2   695.2    0.00 
  26   20:10   0.00   29.5    62    2.5   145     6.0   695.2    0.00 
  26   20:20   0.00   29.4    62    2.1   109     6.0   695.2    0.00 
  26   20:30   0.00   28.9    62    2.0   125     6.6   695.1    0.00 
  26   20:40   0.00   29.5    62    2.4   128     7.2   695.0    0.00 
  26   20:50   0.00   28.5    64    1.7   146     6.0   695.0    0.00 
  26   21:00   0.00   27.8    64    1.0   123     4.2   695.0    0.00 
  26   21:10   0.00   27.2    64    1.3   283     3.6   695.1    0.00 
  26   21:20   0.00   27.7    61    1.9   177     3.6   695.1    0.00 
  26   21:30   0.00   27.1    62    1.7   150     5.4   695.1    0.00 
  26   21:40   0.00   26.8    62    1.6   154     3.0   695.1    0.00 
  26   21:50   0.00   26.2    64    1.0   163     3.0   695.1    0.00 
  26   22:00   0.00   26.0    65    1.0   163     3.0   695.1    0.00 
  26   22:10   0.00   25.6    65    0.5   163     2.4   695.0    0.00 
  26   22:20   0.00   25.3    66    0.6   163     1.8   694.9    0.00 
  26   22:30   0.00   25.1    67    0.6   165     2.4   694.9    0.00 
  26   22:40   0.00   24.8    68    0.6   166     2.4   695.0    0.00 
  26   22:50   0.00   25.1    67    0.8   162     4.2   695.0    0.00 
  26   23:00   0.00   24.7    68    0.7    83     2.4   695.0    0.00 
  26   23:10   0.00   24.5    71    0.3    76     1.8   694.9    0.00 
  26   23:20   0.00   24.4    69    0.6    76     2.4   694.9    0.00 
  26   23:30   0.00   24.0    67    0.5    76     2.4   694.9    0.00 
  26   23:40   0.00   23.5    67    0.5    76     1.8   694.8    0.00 
  26   23:50   0.00   23.4    66    0.5    76     3.0   694.8    0.00 
  27    0:00   0.00   23.0    68    0.1    76     1.8   694.7    0.00 
  27    0:10   0.00   23.4    70    0.2    76     2.4   694.7    0.00 
  27    0:20   0.00   24.0    68    0.0     0     0.0   694.7    0.00 
  27    0:30   0.00   23.9    68    0.4    76     1.8   694.7    0.00 
  27    0:40   0.00   24.5    66    0.6    78     2.4   694.7    0.00 
  27    0:50   0.00   24.7    64    0.8    79     2.4   694.7    0.00 
  27    1:00   0.00   24.8    65    0.5    95     5.4   694.6    0.00 
  27    1:10   0.00   25.6    65    0.3    72     1.8   694.6    0.00 
  27    1:20   0.00   25.8    66    0.3    71     1.8   694.6    0.00 
  27    1:30   0.00   26.7    61    1.3   113     3.6   694.6    0.00 
  27    1:40   0.00   26.7    61    1.2   194     4.8   694.6    0.00 
  27    1:50   0.00   26.7    62    1.5   135     9.0   694.6    0.00 
  27    2:00   0.00   27.3    60    2.7   136     9.6   694.5    0.00 
  27    2:10   0.00   27.4    60    2.7   132     6.6   694.5    0.00 
  27    2:20   0.00   27.5    60    2.5   118     6.0   694.4    0.00 
  27    2:30   0.00   27.8    58    2.5   100     7.8   694.5    0.00 
  27    2:40   0.00   27.6    59    2.8   125    10.2   694.5    0.00 
  27    2:50   0.00   27.9    57    2.5   150     7.8   694.4    0.00 
  27    3:00   0.00   27.9    58    2.9   151     7.2   694.4    0.00 
  27    3:10   0.00   28.5    56    3.0   156     6.0   694.4    0.00 
  27    3:20   0.00   29.0    55    3.5   172    12.5   694.4    0.00 

Return to Redondo, Valles Caldera graphs page.


Western Regional Climate Center,wrcc@dri.edu